sensor_id;sensor_type;location;lat;lon;timestamp;P1;durP1;ratioP1;P2;durP2;ratioP2
21181;SDS011;10749;46.296;7.524;2023-05-16T00:01:06;2.73;;;1.60;;
21181;SDS011;10749;46.296;7.524;2023-05-16T00:03:33;2.77;;;1.60;;
21181;SDS011;10749;46.296;7.524;2023-05-16T00:05:58;2.90;;;2.00;;
21181;SDS011;10749;46.296;7.524;2023-05-16T00:08:26;2.53;;;2.00;;
21181;SDS011;10749;46.296;7.524;2023-05-16T00:10:52;2.50;;;1.70;;
21181;SDS011;10749;46.296;7.524;2023-05-16T00:13:17;1.90;;;1.73;;
21181;SDS011;10749;46.296;7.524;2023-05-16T00:15:46;2.27;;;1.63;;
21181;SDS011;10749;46.296;7.524;2023-05-16T00:18:11;3.60;;;1.93;;
21181;SDS011;10749;46.296;7.524;2023-05-16T00:20:40;2.63;;;1.97;;
21181;SDS011;10749;46.296;7.524;2023-05-16T00:23:06;2.63;;;1.90;;
21181;SDS011;10749;46.296;7.524;2023-05-16T00:25:31;4.83;;;2.10;;
21181;SDS011;10749;46.296;7.524;2023-05-16T00:27:56;2.47;;;1.93;;
21181;SDS011;10749;46.296;7.524;2023-05-16T00:30:22;2.03;;;1.80;;
21181;SDS011;10749;46.296;7.524;2023-05-16T00:32:47;2.90;;;1.73;;
21181;SDS011;10749;46.296;7.524;2023-05-16T00:35:12;2.90;;;1.80;;
21181;SDS011;10749;46.296;7.524;2023-05-16T00:37:38;2.97;;;1.80;;
21181;SDS011;10749;46.296;7.524;2023-05-16T00:40:04;2.77;;;1.80;;
21181;SDS011;10749;46.296;7.524;2023-05-16T00:42:30;3.50;;;1.90;;
21181;SDS011;10749;46.296;7.524;2023-05-16T00:44:55;6.17;;;2.10;;
21181;SDS011;10749;46.296;7.524;2023-05-16T00:47:21;3.87;;;2.00;;
21181;SDS011;10749;46.296;7.524;2023-05-16T00:49:46;2.20;;;1.90;;
21181;SDS011;10749;46.296;7.524;2023-05-16T00:52:11;2.40;;;2.00;;
21181;SDS011;10749;46.296;7.524;2023-05-16T00:54:37;2.93;;;1.90;;
21181;SDS011;10749;46.296;7.524;2023-05-16T00:57:02;2.77;;;1.73;;
21181;SDS011;10749;46.296;7.524;2023-05-16T00:59:29;1.70;;;1.60;;
21181;SDS011;10749;46.296;7.524;2023-05-16T01:01:54;5.47;;;1.50;;
21181;SDS011;10749;46.296;7.524;2023-05-16T01:04:20;2.63;;;1.70;;
21181;SDS011;10749;46.296;7.524;2023-05-16T01:06:45;2.63;;;1.97;;
21181;SDS011;10749;46.296;7.524;2023-05-16T01:09:10;4.07;;;2.30;;
21181;SDS011;10749;46.296;7.524;2023-05-16T01:28:09;1.60;;;1.30;;
21181;SDS011;10749;46.296;7.524;2023-05-16T01:30:37;3.43;;;1.80;;
21181;SDS011;10749;46.296;7.524;2023-05-16T01:33:05;2.10;;;1.57;;
21181;SDS011;10749;46.296;7.524;2023-05-16T01:35:30;2.37;;;1.57;;
21181;SDS011;10749;46.296;7.524;2023-05-16T01:43:41;2.07;;;1.60;;
21181;SDS011;10749;46.296;7.524;2023-05-16T01:46:10;1.80;;;1.43;;
21181;SDS011;10749;46.296;7.524;2023-05-16T01:48:43;3.00;;;1.53;;
21181;SDS011;10749;46.296;7.524;2023-05-16T01:51:15;1.77;;;1.50;;
21181;SDS011;10749;46.296;7.524;2023-05-16T01:53:42;3.30;;;1.90;;
21181;SDS011;10749;46.296;7.524;2023-05-16T01:56:10;2.63;;;1.80;;
21181;SDS011;10749;46.296;7.524;2023-05-16T01:58:39;2.20;;;1.70;;
21181;SDS011;10749;46.296;7.524;2023-05-16T02:01:05;2.07;;;1.70;;
21181;SDS011;10749;46.296;7.524;2023-05-16T02:03:31;2.07;;;1.80;;
21181;SDS011;10749;46.296;7.524;2023-05-16T02:05:57;3.30;;;1.87;;
21181;SDS011;10749;46.296;7.524;2023-05-16T02:08:23;3.60;;;1.60;;
21181;SDS011;10749;46.296;7.524;2023-05-16T02:10:50;3.47;;;2.20;;
21181;SDS011;10749;46.296;7.524;2023-05-16T02:13:16;2.00;;;1.80;;
21181;SDS011;10749;46.296;7.524;2023-05-16T02:15:41;1.90;;;1.70;;
21181;SDS011;10749;46.296;7.524;2023-05-16T02:18:06;2.17;;;1.73;;
21181;SDS011;10749;46.296;7.524;2023-05-16T02:20:33;2.03;;;1.80;;
21181;SDS011;10749;46.296;7.524;2023-05-16T02:22:58;2.23;;;1.73;;
21181;SDS011;10749;46.296;7.524;2023-05-16T02:25:23;3.47;;;2.10;;
21181;SDS011;10749;46.296;7.524;2023-05-16T02:27:49;5.40;;;2.23;;
21181;SDS011;10749;46.296;7.524;2023-05-16T02:30:14;2.60;;;2.07;;
21181;SDS011;10749;46.296;7.524;2023-05-16T02:32:40;2.57;;;2.00;;
21181;SDS011;10749;46.296;7.524;2023-05-16T02:35:05;2.50;;;2.10;;
21181;SDS011;10749;46.296;7.524;2023-05-16T02:37:32;2.27;;;2.07;;
21181;SDS011;10749;46.296;7.524;2023-05-16T02:39:57;3.80;;;2.20;;
21181;SDS011;10749;46.296;7.524;2023-05-16T02:42:24;4.37;;;2.00;;
21181;SDS011;10749;46.296;7.524;2023-05-16T02:44:51;3.30;;;1.97;;
21181;SDS011;10749;46.296;7.524;2023-05-16T02:47:16;3.50;;;2.20;;
21181;SDS011;10749;46.296;7.524;2023-05-16T02:49:42;4.10;;;2.30;;
21181;SDS011;10749;46.296;7.524;2023-05-16T02:52:07;2.50;;;2.10;;
21181;SDS011;10749;46.296;7.524;2023-05-16T02:54:32;4.67;;;2.30;;
21181;SDS011;10749;46.296;7.524;2023-05-16T02:56:57;2.80;;;2.37;;
21181;SDS011;10749;46.296;7.524;2023-05-16T02:59:23;2.67;;;2.10;;
21181;SDS011;10749;46.296;7.524;2023-05-16T03:01:48;3.23;;;2.17;;
21181;SDS011;10749;46.296;7.524;2023-05-16T03:04:13;2.40;;;2.13;;
21181;SDS011;10749;46.296;7.524;2023-05-16T03:06:39;2.40;;;1.93;;
21181;SDS011;10749;46.296;7.524;2023-05-16T03:09:04;4.83;;;2.30;;
21181;SDS011;10749;46.296;7.524;2023-05-16T03:11:29;3.13;;;2.30;;
21181;SDS011;10749;46.296;7.524;2023-05-16T03:13:55;3.57;;;2.23;;
21181;SDS011;10749;46.296;7.524;2023-05-16T03:16:20;2.47;;;1.93;;
21181;SDS011;10749;46.296;7.524;2023-05-16T03:18:45;2.70;;;2.10;;
21181;SDS011;10749;46.296;7.524;2023-05-16T03:21:11;3.63;;;2.10;;
21181;SDS011;10749;46.296;7.524;2023-05-16T03:23:36;6.47;;;2.10;;
21181;SDS011;10749;46.296;7.524;2023-05-16T03:26:01;2.37;;;2.13;;
21181;SDS011;10749;46.296;7.524;2023-05-16T03:28:27;2.40;;;2.20;;
21181;SDS011;10749;46.296;7.524;2023-05-16T03:30:52;2.10;;;1.77;;
21181;SDS011;10749;46.296;7.524;2023-05-16T03:33:17;4.57;;;2.17;;
21181;SDS011;10749;46.296;7.524;2023-05-16T03:35:43;2.83;;;2.23;;
21181;SDS011;10749;46.296;7.524;2023-05-16T03:38:08;2.60;;;2.33;;
21181;SDS011;10749;46.296;7.524;2023-05-16T03:40:34;4.10;;;2.10;;
21181;SDS011;10749;46.296;7.524;2023-05-16T03:43:00;2.77;;;2.30;;
21181;SDS011;10749;46.296;7.524;2023-05-16T03:45:25;3.87;;;1.87;;
21181;SDS011;10749;46.296;7.524;2023-05-16T03:47:50;2.93;;;2.23;;
21181;SDS011;10749;46.296;7.524;2023-05-16T03:50:16;3.27;;;2.30;;
21181;SDS011;10749;46.296;7.524;2023-05-16T03:52:41;2.70;;;2.37;;
21181;SDS011;10749;46.296;7.524;2023-05-16T03:55:07;2.90;;;2.30;;
21181;SDS011;10749;46.296;7.524;2023-05-16T03:57:33;2.00;;;1.73;;
21181;SDS011;10749;46.296;7.524;2023-05-16T03:59:59;2.87;;;2.20;;
21181;SDS011;10749;46.296;7.524;2023-05-16T04:02:24;2.37;;;2.17;;
21181;SDS011;10749;46.296;7.524;2023-05-16T04:04:50;4.00;;;2.23;;
21181;SDS011;10749;46.296;7.524;2023-05-16T04:07:15;3.70;;;1.90;;
21181;SDS011;10749;46.296;7.524;2023-05-16T04:09:41;3.67;;;2.10;;
21181;SDS011;10749;46.296;7.524;2023-05-16T04:12:06;3.70;;;2.00;;
21181;SDS011;10749;46.296;7.524;2023-05-16T04:14:32;2.50;;;2.10;;
21181;SDS011;10749;46.296;7.524;2023-05-16T04:16:59;4.43;;;2.30;;
21181;SDS011;10749;46.296;7.524;2023-05-16T04:19:24;3.03;;;2.20;;
21181;SDS011;10749;46.296;7.524;2023-05-16T04:21:49;4.50;;;2.17;;
21181;SDS011;10749;46.296;7.524;2023-05-16T04:24:16;4.47;;;2.27;;
21181;SDS011;10749;46.296;7.524;2023-05-16T04:26:41;3.87;;;2.50;;
21181;SDS011;10749;46.296;7.524;2023-05-16T04:29:06;3.87;;;2.57;;
21181;SDS011;10749;46.296;7.524;2023-05-16T04:31:32;3.47;;;1.90;;
21181;SDS011;10749;46.296;7.524;2023-05-16T04:33:57;3.03;;;2.10;;
21181;SDS011;10749;46.296;7.524;2023-05-16T04:36:22;2.80;;;2.37;;
21181;SDS011;10749;46.296;7.524;2023-05-16T04:38:48;3.93;;;2.10;;
21181;SDS011;10749;46.296;7.524;2023-05-16T04:41:13;2.53;;;2.13;;
21181;SDS011;10749;46.296;7.524;2023-05-16T04:43:39;3.53;;;2.30;;
21181;SDS011;10749;46.296;7.524;2023-05-16T04:46:04;2.93;;;2.20;;
21181;SDS011;10749;46.296;7.524;2023-05-16T04:48:31;3.87;;;2.60;;
21181;SDS011;10749;46.296;7.524;2023-05-16T04:50:57;3.60;;;2.37;;
21181;SDS011;10749;46.296;7.524;2023-05-16T04:53:22;3.23;;;2.10;;
21181;SDS011;10749;46.296;7.524;2023-05-16T04:55:47;3.60;;;2.43;;
21181;SDS011;10749;46.296;7.524;2023-05-16T04:58:13;6.13;;;2.77;;
21181;SDS011;10749;46.296;7.524;2023-05-16T05:00:38;4.03;;;2.97;;
21181;SDS011;10749;46.296;7.524;2023-05-16T05:03:03;4.50;;;3.93;;
21181;SDS011;10749;46.296;7.524;2023-05-16T05:05:29;4.80;;;3.53;;
21181;SDS011;10749;46.296;7.524;2023-05-16T05:07:54;6.37;;;2.97;;
21181;SDS011;10749;46.296;7.524;2023-05-16T05:10:19;4.53;;;3.20;;
21181;SDS011;10749;46.296;7.524;2023-05-16T05:12:45;4.23;;;3.20;;
21181;SDS011;10749;46.296;7.524;2023-05-16T05:15:10;4.60;;;2.90;;
21181;SDS011;10749;46.296;7.524;2023-05-16T05:17:35;4.87;;;3.30;;
21181;SDS011;10749;46.296;7.524;2023-05-16T05:20:01;3.43;;;3.13;;
21181;SDS011;10749;46.296;7.524;2023-05-16T05:22:30;5.13;;;2.80;;
21181;SDS011;10749;46.296;7.524;2023-05-16T05:24:56;3.73;;;3.10;;
21181;SDS011;10749;46.296;7.524;2023-05-16T05:27:21;5.53;;;3.53;;
21181;SDS011;10749;46.296;7.524;2023-05-16T05:29:46;7.33;;;2.93;;
21181;SDS011;10749;46.296;7.524;2023-05-16T05:32:12;4.13;;;2.80;;
21181;SDS011;10749;46.296;7.524;2023-05-16T05:34:37;4.77;;;3.20;;
21181;SDS011;10749;46.296;7.524;2023-05-16T05:37:02;4.93;;;3.30;;
21181;SDS011;10749;46.296;7.524;2023-05-16T05:39:27;5.63;;;3.10;;
21181;SDS011;10749;46.296;7.524;2023-05-16T05:41:53;4.40;;;3.20;;
21181;SDS011;10749;46.296;7.524;2023-05-16T05:44:18;6.90;;;2.97;;
21181;SDS011;10749;46.296;7.524;2023-05-16T05:46:43;5.07;;;2.90;;
21181;SDS011;10749;46.296;7.524;2023-05-16T05:49:09;4.60;;;3.20;;
21181;SDS011;10749;46.296;7.524;2023-05-16T05:51:34;4.53;;;2.90;;
21181;SDS011;10749;46.296;7.524;2023-05-16T05:54:00;4.47;;;3.00;;
21181;SDS011;10749;46.296;7.524;2023-05-16T05:56:26;6.10;;;3.10;;
21181;SDS011;10749;46.296;7.524;2023-05-16T05:58:51;3.73;;;2.87;;
21181;SDS011;10749;46.296;7.524;2023-05-16T06:01:16;4.27;;;3.00;;
21181;SDS011;10749;46.296;7.524;2023-05-16T06:03:42;4.70;;;2.97;;
21181;SDS011;10749;46.296;7.524;2023-05-16T06:06:07;4.63;;;3.03;;
21181;SDS011;10749;46.296;7.524;2023-05-16T06:08:33;4.63;;;3.00;;
21181;SDS011;10749;46.296;7.524;2023-05-16T06:10:59;3.10;;;2.80;;
21181;SDS011;10749;46.296;7.524;2023-05-16T06:13:24;5.77;;;3.10;;
21181;SDS011;10749;46.296;7.524;2023-05-16T06:15:50;4.23;;;2.70;;
21181;SDS011;10749;46.296;7.524;2023-05-16T06:18:16;2.73;;;2.47;;
21181;SDS011;10749;46.296;7.524;2023-05-16T06:20:42;4.03;;;2.80;;
21181;SDS011;10749;46.296;7.524;2023-05-16T06:23:07;4.00;;;2.70;;
21181;SDS011;10749;46.296;7.524;2023-05-16T06:25:32;6.63;;;2.73;;
21181;SDS011;10749;46.296;7.524;2023-05-16T06:27:57;4.20;;;2.90;;
21181;SDS011;10749;46.296;7.524;2023-05-16T06:30:23;6.50;;;2.77;;
21181;SDS011;10749;46.296;7.524;2023-05-16T06:32:48;3.53;;;2.53;;
21181;SDS011;10749;46.296;7.524;2023-05-16T06:35:13;3.80;;;2.80;;
21181;SDS011;10749;46.296;7.524;2023-05-16T06:37:39;5.90;;;2.73;;
21181;SDS011;10749;46.296;7.524;2023-05-16T06:40:04;3.50;;;2.70;;
21181;SDS011;10749;46.296;7.524;2023-05-16T06:42:30;3.80;;;2.83;;
21181;SDS011;10749;46.296;7.524;2023-05-16T06:44:56;6.10;;;2.67;;
21181;SDS011;10749;46.296;7.524;2023-05-16T06:47:21;3.13;;;2.80;;
21181;SDS011;10749;46.296;7.524;2023-05-16T06:49:46;3.27;;;2.80;;
21181;SDS011;10749;46.296;7.524;2023-05-16T06:52:12;3.30;;;2.90;;
21181;SDS011;10749;46.296;7.524;2023-05-16T06:54:37;4.40;;;2.93;;
21181;SDS011;10749;46.296;7.524;2023-05-16T06:57:02;4.67;;;3.07;;
21181;SDS011;10749;46.296;7.524;2023-05-16T06:59:28;3.17;;;2.87;;
21181;SDS011;10749;46.296;7.524;2023-05-16T07:01:53;5.60;;;2.87;;
21181;SDS011;10749;46.296;7.524;2023-05-16T07:04:18;3.13;;;2.63;;
21181;SDS011;10749;46.296;7.524;2023-05-16T07:06:44;3.92;;;2.58;;
21181;SDS011;10749;46.296;7.524;2023-05-16T07:09:09;4.00;;;2.63;;
21181;SDS011;10749;46.296;7.524;2023-05-16T07:11:35;3.87;;;2.63;;
21181;SDS011;10749;46.296;7.524;2023-05-16T07:14:00;3.90;;;2.57;;
21181;SDS011;10749;46.296;7.524;2023-05-16T07:16:25;4.87;;;2.70;;
21181;SDS011;10749;46.296;7.524;2023-05-16T07:18:52;3.07;;;2.53;;
21181;SDS011;10749;46.296;7.524;2023-05-16T07:21:18;4.25;;;3.08;;
21181;SDS011;10749;46.296;7.524;2023-05-16T07:23:43;3.97;;;2.60;;
21181;SDS011;10749;46.296;7.524;2023-05-16T07:26:09;3.47;;;2.92;;
21181;SDS011;10749;46.296;7.524;2023-05-16T07:28:34;4.30;;;2.60;;
21181;SDS011;10749;46.296;7.524;2023-05-16T07:30:59;3.77;;;2.50;;
21181;SDS011;10749;46.296;7.524;2023-05-16T07:33:25;3.10;;;2.70;;
21181;SDS011;10749;46.296;7.524;2023-05-16T07:35:51;3.33;;;3.03;;
21181;SDS011;10749;46.296;7.524;2023-05-16T07:38:18;2.95;;;2.55;;
21181;SDS011;10749;46.296;7.524;2023-05-16T07:40:44;2.87;;;2.60;;
21181;SDS011;10749;46.296;7.524;2023-05-16T07:43:09;3.70;;;2.77;;
21181;SDS011;10749;46.296;7.524;2023-05-16T07:45:35;4.03;;;2.77;;
21181;SDS011;10749;46.296;7.524;2023-05-16T07:48:00;4.53;;;3.13;;
21181;SDS011;10749;46.296;7.524;2023-05-16T07:50:25;5.40;;;3.00;;
21181;SDS011;10749;46.296;7.524;2023-05-16T07:52:51;4.63;;;2.83;;
21181;SDS011;10749;46.296;7.524;2023-05-16T07:55:16;5.30;;;2.80;;
21181;SDS011;10749;46.296;7.524;2023-05-16T07:57:41;3.43;;;2.40;;
21181;SDS011;10749;46.296;7.524;2023-05-16T08:00:07;4.30;;;2.70;;
21181;SDS011;10749;46.296;7.524;2023-05-16T08:02:34;3.60;;;2.70;;
21181;SDS011;10749;46.296;7.524;2023-05-16T08:04:59;4.97;;;3.07;;
21181;SDS011;10749;46.296;7.524;2023-05-16T08:07:24;3.67;;;2.70;;
21181;SDS011;10749;46.296;7.524;2023-05-16T08:09:50;4.00;;;2.63;;
21181;SDS011;10749;46.296;7.524;2023-05-16T08:12:15;3.53;;;2.60;;
21181;SDS011;10749;46.296;7.524;2023-05-16T08:14:41;3.33;;;2.93;;
21181;SDS011;10749;46.296;7.524;2023-05-16T08:17:06;3.57;;;2.67;;
21181;SDS011;10749;46.296;7.524;2023-05-16T08:19:31;3.65;;;3.10;;
21181;SDS011;10749;46.296;7.524;2023-05-16T08:21:57;4.70;;;3.00;;
21181;SDS011;10749;46.296;7.524;2023-05-16T08:24:22;5.30;;;3.05;;
21181;SDS011;10749;46.296;7.524;2023-05-16T08:26:48;3.17;;;2.72;;
21181;SDS011;10749;46.296;7.524;2023-05-16T08:29:14;5.15;;;2.55;;
21181;SDS011;10749;46.296;7.524;2023-05-16T08:31:39;3.92;;;2.80;;
21181;SDS011;10749;46.296;7.524;2023-05-16T08:34:05;3.92;;;2.78;;
21181;SDS011;10749;46.296;7.524;2023-05-16T08:36:30;3.13;;;2.55;;
21181;SDS011;10749;46.296;7.524;2023-05-16T08:38:57;3.47;;;2.58;;
21181;SDS011;10749;46.296;7.524;2023-05-16T08:41:22;5.43;;;3.17;;
21181;SDS011;10749;46.296;7.524;2023-05-16T08:43:48;5.82;;;2.90;;
21181;SDS011;10749;46.296;7.524;2023-05-16T08:46:13;3.75;;;2.80;;
21181;SDS011;10749;46.296;7.524;2023-05-16T08:48:41;3.30;;;2.53;;
21181;SDS011;10749;46.296;7.524;2023-05-16T08:51:10;5.00;;;2.85;;
21181;SDS011;10749;46.296;7.524;2023-05-16T08:53:39;4.32;;;2.80;;
21181;SDS011;10749;46.296;7.524;2023-05-16T08:56:11;6.22;;;3.00;;
21181;SDS011;10749;46.296;7.524;2023-05-16T08:58:37;3.25;;;2.95;;
21181;SDS011;10749;46.296;7.524;2023-05-16T09:01:03;4.78;;;2.90;;
21181;SDS011;10749;46.296;7.524;2023-05-16T09:03:32;6.05;;;2.75;;
21181;SDS011;10749;46.296;7.524;2023-05-16T09:06:02;2.72;;;2.33;;
21181;SDS011;10749;46.296;7.524;2023-05-16T09:08:29;4.05;;;3.20;;
21181;SDS011;10749;46.296;7.524;2023-05-16T09:10:55;5.45;;;2.72;;
21181;SDS011;10749;46.296;7.524;2023-05-16T09:13:20;4.70;;;2.70;;
21181;SDS011;10749;46.296;7.524;2023-05-16T09:15:46;5.03;;;2.45;;
21181;SDS011;10749;46.296;7.524;2023-05-16T09:18:34;3.88;;;2.40;;
21181;SDS011;10749;46.296;7.524;2023-05-16T09:21:00;3.97;;;2.50;;
21181;SDS011;10749;46.296;7.524;2023-05-16T09:23:25;4.07;;;2.20;;
21181;SDS011;10749;46.296;7.524;2023-05-16T09:25:53;3.50;;;1.75;;
21181;SDS011;10749;46.296;7.524;2023-05-16T09:28:19;2.60;;;1.45;;
21181;SDS011;10749;46.296;7.524;2023-05-16T09:30:45;1.60;;;1.27;;
21181;SDS011;10749;46.296;7.524;2023-05-16T09:33:10;2.58;;;1.50;;
21181;SDS011;10749;46.296;7.524;2023-05-16T09:35:36;1.75;;;1.50;;
21181;SDS011;10749;46.296;7.524;2023-05-16T09:38:02;1.98;;;1.38;;
21181;SDS011;10749;46.296;7.524;2023-05-16T09:40:27;1.73;;;1.23;;
21181;SDS011;10749;46.296;7.524;2023-05-16T09:43:05;1.95;;;1.30;;
21181;SDS011;10749;46.296;7.524;2023-05-16T09:45:32;2.10;;;1.40;;
21181;SDS011;10749;46.296;7.524;2023-05-16T09:48:08;2.75;;;1.30;;
21181;SDS011;10749;46.296;7.524;2023-05-16T09:50:36;3.38;;;1.38;;
21181;SDS011;10749;46.296;7.524;2023-05-16T09:53:02;3.15;;;1.17;;
21181;SDS011;10749;46.296;7.524;2023-05-16T09:55:28;1.40;;;1.30;;
21181;SDS011;10749;46.296;7.524;2023-05-16T09:57:54;1.50;;;1.40;;
21181;SDS011;10749;46.296;7.524;2023-05-16T10:00:20;2.75;;;1.40;;
21181;SDS011;10749;46.296;7.524;2023-05-16T10:02:45;1.70;;;1.52;;
21181;SDS011;10749;46.296;7.524;2023-05-16T10:05:13;1.60;;;1.40;;
21181;SDS011;10749;46.296;7.524;2023-05-16T10:07:40;2.20;;;1.65;;
21181;SDS011;10749;46.296;7.524;2023-05-16T10:10:07;3.88;;;1.65;;
21181;SDS011;10749;46.296;7.524;2023-05-16T10:12:33;1.50;;;1.27;;
21181;SDS011;10749;46.296;7.524;2023-05-16T10:15:01;1.55;;;1.20;;
21181;SDS011;10749;46.296;7.524;2023-05-16T10:17:28;2.30;;;1.35;;
21181;SDS011;10749;46.296;7.524;2023-05-16T10:19:56;2.30;;;1.05;;
21181;SDS011;10749;46.296;7.524;2023-05-16T10:22:23;1.92;;;1.00;;
21181;SDS011;10749;46.296;7.524;2023-05-16T10:27:28;2.58;;;1.20;;
21181;SDS011;10749;46.296;7.524;2023-05-16T10:29:55;2.25;;;1.20;;
21181;SDS011;10749;46.296;7.524;2023-05-16T10:32:22;3.03;;;1.30;;
21181;SDS011;10749;46.296;7.524;2023-05-16T10:34:49;1.40;;;1.10;;
21181;SDS011;10749;46.296;7.524;2023-05-16T10:37:14;1.30;;;1.10;;
21181;SDS011;10749;46.296;7.524;2023-05-16T10:39:40;2.65;;;1.10;;
21181;SDS011;10749;46.296;7.524;2023-05-16T10:42:07;1.20;;;1.02;;
21181;SDS011;10749;46.296;7.524;2023-05-16T10:44:32;2.10;;;1.15;;
21181;SDS011;10749;46.296;7.524;2023-05-16T10:46:58;2.22;;;1.30;;
21181;SDS011;10749;46.296;7.524;2023-05-16T10:49:25;1.42;;;1.20;;
21181;SDS011;10749;46.296;7.524;2023-05-16T10:52:07;1.45;;;1.30;;
21181;SDS011;10749;46.296;7.524;2023-05-16T10:54:35;1.70;;;1.17;;
21181;SDS011;10749;46.296;7.524;2023-05-16T10:57:03;1.45;;;1.00;;
21181;SDS011;10749;46.296;7.524;2023-05-16T10:59:30;2.45;;;1.08;;
21181;SDS011;10749;46.296;7.524;2023-05-16T11:02:06;1.30;;;1.20;;
21181;SDS011;10749;46.296;7.524;2023-05-16T11:04:49;1.92;;;1.20;;
21181;SDS011;10749;46.296;7.524;2023-05-16T11:07:19;1.75;;;1.20;;
21181;SDS011;10749;46.296;7.524;2023-05-16T11:09:45;1.50;;;1.38;;
21181;SDS011;10749;46.296;7.524;2023-05-16T11:12:16;2.13;;;1.30;;
21181;SDS011;10749;46.296;7.524;2023-05-16T11:14:44;2.30;;;1.40;;
21181;SDS011;10749;46.296;7.524;2023-05-16T11:17:22;2.47;;;1.50;;
21181;SDS011;10749;46.296;7.524;2023-05-16T11:22:29;1.10;;;1.00;;
21181;SDS011;10749;46.296;7.524;2023-05-16T11:24:59;1.90;;;1.35;;
21181;SDS011;10749;46.296;7.524;2023-05-16T11:27:31;2.00;;;1.30;;
21181;SDS011;10749;46.296;7.524;2023-05-16T11:30:00;3.05;;;1.38;;
21181;SDS011;10749;46.296;7.524;2023-05-16T11:32:28;3.20;;;1.35;;
21181;SDS011;10749;46.296;7.524;2023-05-16T11:34:54;2.13;;;1.20;;
21181;SDS011;10749;46.296;7.524;2023-05-16T11:37:22;3.92;;;1.30;;
21181;SDS011;10749;46.296;7.524;2023-05-16T11:39:47;2.67;;;1.20;;
21181;SDS011;10749;46.296;7.524;2023-05-16T11:42:12;1.30;;;1.15;;
21181;SDS011;10749;46.296;7.524;2023-05-16T11:44:38;1.70;;;1.13;;
21181;SDS011;10749;46.296;7.524;2023-05-16T11:47:05;2.05;;;1.58;;
21181;SDS011;10749;46.296;7.524;2023-05-16T11:49:31;2.25;;;1.38;;
21181;SDS011;10749;46.296;7.524;2023-05-16T11:51:56;1.48;;;1.23;;
21181;SDS011;10749;46.296;7.524;2023-05-16T11:54:22;1.35;;;1.20;;
21181;SDS011;10749;46.296;7.524;2023-05-16T11:56:48;2.05;;;1.40;;
21181;SDS011;10749;46.296;7.524;2023-05-16T11:59:15;3.70;;;1.05;;
21181;SDS011;10749;46.296;7.524;2023-05-16T12:01:41;2.20;;;0.80;;
21181;SDS011;10749;46.296;7.524;2023-05-16T12:04:07;2.15;;;1.00;;
21181;SDS011;10749;46.296;7.524;2023-05-16T12:06:33;1.33;;;0.82;;
21181;SDS011;10749;46.296;7.524;2023-05-16T12:08:58;3.15;;;1.05;;
21181;SDS011;10749;46.296;7.524;2023-05-16T12:11:27;2.83;;;0.90;;
21181;SDS011;10749;46.296;7.524;2023-05-16T12:13:52;1.65;;;0.88;;
21181;SDS011;10749;46.296;7.524;2023-05-16T12:16:18;0.60;;;0.60;;
21181;SDS011;10749;46.296;7.524;2023-05-16T12:18:43;2.65;;;0.90;;
21181;SDS011;10749;46.296;7.524;2023-05-16T12:21:09;0.65;;;0.65;;
21181;SDS011;10749;46.296;7.524;2023-05-16T12:23:35;1.38;;;0.60;;
21181;SDS011;10749;46.296;7.524;2023-05-16T12:26:01;0.80;;;0.70;;
21181;SDS011;10749;46.296;7.524;2023-05-16T12:28:31;1.08;;;0.70;;
21181;SDS011;10749;46.296;7.524;2023-05-16T12:30:58;3.88;;;0.80;;
21181;SDS011;10749;46.296;7.524;2023-05-16T12:33:23;1.25;;;0.75;;
21181;SDS011;10749;46.296;7.524;2023-05-16T12:35:48;1.33;;;0.98;;
21181;SDS011;10749;46.296;7.524;2023-05-16T12:38:16;2.33;;;0.98;;
21181;SDS011;10749;46.296;7.524;2023-05-16T12:40:43;0.73;;;0.70;;
21181;SDS011;10749;46.296;7.524;2023-05-16T12:43:12;1.25;;;1.13;;
21181;SDS011;10749;46.296;7.524;2023-05-16T12:45:38;1.50;;;1.10;;
21181;SDS011;10749;46.296;7.524;2023-05-16T12:48:04;1.67;;;1.00;;
21181;SDS011;10749;46.296;7.524;2023-05-16T12:50:31;1.45;;;0.80;;
21181;SDS011;10749;46.296;7.524;2023-05-16T12:52:58;1.30;;;0.90;;
21181;SDS011;10749;46.296;7.524;2023-05-16T12:55:24;1.10;;;1.00;;
21181;SDS011;10749;46.296;7.524;2023-05-16T12:57:50;2.15;;;0.93;;
21181;SDS011;10749;46.296;7.524;2023-05-16T13:00:17;2.10;;;0.90;;
21181;SDS011;10749;46.296;7.524;2023-05-16T13:02:45;2.10;;;1.05;;
21181;SDS011;10749;46.296;7.524;2023-05-16T13:05:11;1.50;;;1.05;;
21181;SDS011;10749;46.296;7.524;2023-05-16T13:07:37;1.58;;;0.98;;
21181;SDS011;10749;46.296;7.524;2023-05-16T13:10:04;2.55;;;0.90;;
21181;SDS011;10749;46.296;7.524;2023-05-16T13:12:36;2.25;;;1.05;;
21181;SDS011;10749;46.296;7.524;2023-05-16T13:15:03;1.25;;;0.95;;
21181;SDS011;10749;46.296;7.524;2023-05-16T13:17:29;1.15;;;0.88;;
21181;SDS011;10749;46.296;7.524;2023-05-16T13:19:55;2.20;;;0.90;;
21181;SDS011;10749;46.296;7.524;2023-05-16T13:22:20;1.83;;;0.80;;
21181;SDS011;10749;46.296;7.524;2023-05-16T13:24:46;1.35;;;0.70;;
21181;SDS011;10749;46.296;7.524;2023-05-16T13:27:14;2.78;;;0.90;;
21181;SDS011;10749;46.296;7.524;2023-05-16T13:29:40;1.75;;;0.73;;
21181;SDS011;10749;46.296;7.524;2023-05-16T13:32:06;1.95;;;0.80;;
21181;SDS011;10749;46.296;7.524;2023-05-16T13:34:31;1.08;;;0.70;;
21181;SDS011;10749;46.296;7.524;2023-05-16T13:36:57;0.90;;;0.50;;
21181;SDS011;10749;46.296;7.524;2023-05-16T13:39:23;0.50;;;0.50;;
21181;SDS011;10749;46.296;7.524;2023-05-16T13:41:48;1.75;;;0.70;;
21181;SDS011;10749;46.296;7.524;2023-05-16T13:44:14;3.05;;;0.63;;
21181;SDS011;10749;46.296;7.524;2023-05-16T13:46:40;0.85;;;0.70;;
21181;SDS011;10749;46.296;7.524;2023-05-16T13:49:05;2.25;;;0.73;;
21181;SDS011;10749;46.296;7.524;2023-05-16T13:51:31;3.47;;;0.73;;
21181;SDS011;10749;46.296;7.524;2023-05-16T13:53:56;0.95;;;0.50;;
21181;SDS011;10749;46.296;7.524;2023-05-16T13:56:22;3.40;;;1.00;;
21181;SDS011;10749;46.296;7.524;2023-05-16T13:58:47;1.45;;;0.60;;
21181;SDS011;10749;46.296;7.524;2023-05-16T14:01:14;2.47;;;1.00;;
21181;SDS011;10749;46.296;7.524;2023-05-16T14:03:39;1.02;;;0.60;;
21181;SDS011;10749;46.296;7.524;2023-05-16T14:06:05;5.53;;;0.70;;
21181;SDS011;10749;46.296;7.524;2023-05-16T14:08:30;10.77;;;4.57;;
21181;SDS011;10749;46.296;7.524;2023-05-16T14:10:56;5.80;;;1.65;;
21181;SDS011;10749;46.296;7.524;2023-05-16T14:13:21;9.10;;;3.03;;
21181;SDS011;10749;46.296;7.524;2023-05-16T14:15:46;12.18;;;4.70;;
21181;SDS011;10749;46.296;7.524;2023-05-16T14:18:12;6.20;;;2.05;;
21181;SDS011;10749;46.296;7.524;2023-05-16T14:20:38;1.77;;;0.60;;
21181;SDS011;10749;46.296;7.524;2023-05-16T14:23:04;13.60;;;4.95;;
21181;SDS011;10749;46.296;7.524;2023-05-16T14:25:29;4.28;;;1.15;;
21181;SDS011;10749;46.296;7.524;2023-05-16T14:27:55;2.38;;;1.00;;
21181;SDS011;10749;46.296;7.524;2023-05-16T14:30:20;6.32;;;1.67;;
21181;SDS011;10749;46.296;7.524;2023-05-16T14:32:46;1.48;;;0.30;;
21181;SDS011;10749;46.296;7.524;2023-05-16T14:35:11;1.30;;;0.40;;
21181;SDS011;10749;46.296;7.524;2023-05-16T14:37:36;0.70;;;0.50;;
21181;SDS011;10749;46.296;7.524;2023-05-16T14:40:02;2.22;;;0.55;;
21181;SDS011;10749;46.296;7.524;2023-05-16T14:42:29;1.13;;;0.50;;
21181;SDS011;10749;46.296;7.524;2023-05-16T14:44:55;0.50;;;0.43;;
21181;SDS011;10749;46.296;7.524;2023-05-16T14:47:20;2.65;;;0.57;;
21181;SDS011;10749;46.296;7.524;2023-05-16T14:49:46;0.57;;;0.40;;
21181;SDS011;10749;46.296;7.524;2023-05-16T14:52:11;0.40;;;0.40;;
21181;SDS011;10749;46.296;7.524;2023-05-16T14:54:36;1.00;;;0.60;;
21181;SDS011;10749;46.296;7.524;2023-05-16T14:57:02;1.58;;;0.68;;
21181;SDS011;10749;46.296;7.524;2023-05-16T14:59:28;1.67;;;0.70;;
21181;SDS011;10749;46.296;7.524;2023-05-16T15:01:53;2.22;;;0.50;;
21181;SDS011;10749;46.296;7.524;2023-05-16T15:04:19;0.50;;;0.40;;
21181;SDS011;10749;46.296;7.524;2023-05-16T15:06:44;0.38;;;0.38;;
21181;SDS011;10749;46.296;7.524;2023-05-16T15:09:10;1.60;;;0.50;;